sensor_id;sensor_type;location;lat;lon;timestamp;P1;durP1;ratioP1;P2;durP2;ratioP2
12445;SDS011;6287;50.984;7.022;2022-08-01T00:01:23;0.85;;;0.85;;
12445;SDS011;6287;50.984;7.022;2022-08-01T00:03:51;2.08;;;1.20;;
12445;SDS011;6287;50.984;7.022;2022-08-01T00:06:21;1.20;;;1.10;;
12445;SDS011;6287;50.984;7.022;2022-08-01T00:08:47;0.82;;;0.60;;
12445;SDS011;6287;50.984;7.022;2022-08-01T00:11:12;1.27;;;1.10;;
12445;SDS011;6287;50.984;7.022;2022-08-01T00:13:38;0.90;;;0.90;;
12445;SDS011;6287;50.984;7.022;2022-08-01T00:16:09;0.70;;;0.70;;
12445;SDS011;6287;50.984;7.022;2022-08-01T00:18:37;0.95;;;0.90;;
12445;SDS011;6287;50.984;7.022;2022-08-01T00:21:06;3.35;;;0.90;;
12445;SDS011;6287;50.984;7.022;2022-08-01T00:23:31;0.95;;;0.95;;
12445;SDS011;6287;50.984;7.022;2022-08-01T00:26:02;1.27;;;1.10;;
12445;SDS011;6287;50.984;7.022;2022-08-01T00:28:29;1.02;;;1.02;;
12445;SDS011;6287;50.984;7.022;2022-08-01T00:30:58;1.45;;;0.90;;
12445;SDS011;6287;50.984;7.022;2022-08-01T00:33:23;1.33;;;0.90;;
12445;SDS011;6287;50.984;7.022;2022-08-01T00:35:51;1.85;;;1.08;;
12445;SDS011;6287;50.984;7.022;2022-08-01T00:38:17;1.55;;;0.80;;
12445;SDS011;6287;50.984;7.022;2022-08-01T00:40:47;1.40;;;1.10;;
12445;SDS011;6287;50.984;7.022;2022-08-01T00:43:13;1.00;;;1.00;;
12445;SDS011;6287;50.984;7.022;2022-08-01T00:45:41;1.10;;;1.00;;
12445;SDS011;6287;50.984;7.022;2022-08-01T00:48:07;1.00;;;0.75;;
12445;SDS011;6287;50.984;7.022;2022-08-01T00:50:36;1.33;;;1.23;;
12445;SDS011;6287;50.984;7.022;2022-08-01T00:53:06;0.93;;;0.93;;
12445;SDS011;6287;50.984;7.022;2022-08-01T00:55:32;1.77;;;1.15;;
12445;SDS011;6287;50.984;7.022;2022-08-01T00:58:01;2.28;;;1.40;;
12445;SDS011;6287;50.984;7.022;2022-08-01T01:00:29;1.38;;;1.27;;
12445;SDS011;6287;50.984;7.022;2022-08-01T01:02:57;1.17;;;1.10;;
12445;SDS011;6287;50.984;7.022;2022-08-01T01:05:23;1.35;;;1.00;;
12445;SDS011;6287;50.984;7.022;2022-08-01T01:08:04;1.20;;;1.17;;
12445;SDS011;6287;50.984;7.022;2022-08-01T01:14:02;1.40;;;1.30;;
12445;SDS011;6287;50.984;7.022;2022-08-01T01:16:36;1.30;;;1.27;;
12445;SDS011;6287;50.984;7.022;2022-08-01T01:19:10;1.05;;;1.02;;
12445;SDS011;6287;50.984;7.022;2022-08-01T01:29:35;1.52;;;1.35;;
12445;SDS011;6287;50.984;7.022;2022-08-01T01:32:18;1.65;;;1.55;;
12445;SDS011;6287;50.984;7.022;2022-08-01T01:34:52;1.25;;;1.20;;
12445;SDS011;6287;50.984;7.022;2022-08-01T01:37:20;1.50;;;1.40;;
12445;SDS011;6287;50.984;7.022;2022-08-01T01:39:51;1.80;;;1.70;;
12445;SDS011;6287;50.984;7.022;2022-08-01T01:42:18;1.75;;;1.63;;
12445;SDS011;6287;50.984;7.022;2022-08-01T01:44:47;1.60;;;1.50;;
12445;SDS011;6287;50.984;7.022;2022-08-01T01:47:17;1.60;;;1.50;;
12445;SDS011;6287;50.984;7.022;2022-08-01T01:49:48;1.80;;;1.70;;
12445;SDS011;6287;50.984;7.022;2022-08-01T01:52:21;2.75;;;1.83;;
12445;SDS011;6287;50.984;7.022;2022-08-01T01:54:50;1.85;;;1.75;;
12445;SDS011;6287;50.984;7.022;2022-08-01T01:57:20;2.03;;;1.83;;
12445;SDS011;6287;50.984;7.022;2022-08-01T01:59:49;2.13;;;1.88;;
12445;SDS011;6287;50.984;7.022;2022-08-01T02:02:18;2.00;;;1.80;;
12445;SDS011;6287;50.984;7.022;2022-08-01T02:04:49;1.70;;;1.60;;
12445;SDS011;6287;50.984;7.022;2022-08-01T02:07:20;1.80;;;1.70;;
12445;SDS011;6287;50.984;7.022;2022-08-01T02:09:49;1.88;;;1.77;;
12445;SDS011;6287;50.984;7.022;2022-08-01T02:12:19;1.88;;;1.70;;
12445;SDS011;6287;50.984;7.022;2022-08-01T02:14:50;1.88;;;1.75;;
12445;SDS011;6287;50.984;7.022;2022-08-01T02:17:18;1.65;;;1.55;;
12445;SDS011;6287;50.984;7.022;2022-08-01T02:19:45;1.83;;;1.73;;
12445;SDS011;6287;50.984;7.022;2022-08-01T02:22:24;2.08;;;1.88;;
12445;SDS011;6287;50.984;7.022;2022-08-01T02:25:19;2.70;;;1.48;;
12445;SDS011;6287;50.984;7.022;2022-08-01T02:30:35;1.60;;;1.50;;
12445;SDS011;6287;50.984;7.022;2022-08-01T02:33:17;4.07;;;1.90;;
12445;SDS011;6287;50.984;7.022;2022-08-01T02:35:43;2.78;;;1.85;;
12445;SDS011;6287;50.984;7.022;2022-08-01T02:38:13;2.10;;;1.80;;
12445;SDS011;6287;50.984;7.022;2022-08-01T02:40:42;1.70;;;1.60;;
12445;SDS011;6287;50.984;7.022;2022-08-01T02:43:11;1.88;;;1.70;;
12445;SDS011;6287;50.984;7.022;2022-08-01T02:45:39;2.08;;;1.58;;
12445;SDS011;6287;50.984;7.022;2022-08-01T02:48:11;1.67;;;1.58;;
12445;SDS011;6287;50.984;7.022;2022-08-01T02:50:39;1.70;;;1.60;;
12445;SDS011;6287;50.984;7.022;2022-08-01T02:53:09;1.80;;;1.70;;
12445;SDS011;6287;50.984;7.022;2022-08-01T02:55:40;1.70;;;1.58;;
12445;SDS011;6287;50.984;7.022;2022-08-01T02:58:08;2.33;;;1.80;;
12445;SDS011;6287;50.984;7.022;2022-08-01T03:00:36;2.28;;;2.05;;
12445;SDS011;6287;50.984;7.022;2022-08-01T03:03:03;1.80;;;1.65;;
12445;SDS011;6287;50.984;7.022;2022-08-01T03:05:31;11.57;;;2.53;;
12445;SDS011;6287;50.984;7.022;2022-08-01T03:08:01;2.88;;;2.30;;
12445;SDS011;6287;50.984;7.022;2022-08-01T03:10:30;1.95;;;1.85;;
12445;SDS011;6287;50.984;7.022;2022-08-01T03:12:58;2.10;;;1.90;;
12445;SDS011;6287;50.984;7.022;2022-08-01T03:15:29;3.42;;;2.15;;
12445;SDS011;6287;50.984;7.022;2022-08-01T03:17:58;2.50;;;2.00;;
12445;SDS011;6287;50.984;7.022;2022-08-01T03:20:26;2.08;;;1.73;;
12445;SDS011;6287;50.984;7.022;2022-08-01T03:22:53;2.40;;;2.20;;
12445;SDS011;6287;50.984;7.022;2022-08-01T03:25:25;2.42;;;1.80;;
12445;SDS011;6287;50.984;7.022;2022-08-01T03:27:54;2.22;;;2.10;;
12445;SDS011;6287;50.984;7.022;2022-08-01T03:30:22;1.90;;;1.80;;
12445;SDS011;6287;50.984;7.022;2022-08-01T03:32:50;2.08;;;1.90;;
12445;SDS011;6287;50.984;7.022;2022-08-01T03:35:18;2.63;;;2.00;;
12445;SDS011;6287;50.984;7.022;2022-08-01T03:37:47;3.58;;;2.10;;
12445;SDS011;6287;50.984;7.022;2022-08-01T03:40:20;2.72;;;1.98;;
12445;SDS011;6287;50.984;7.022;2022-08-01T03:42:58;3.45;;;2.03;;
12445;SDS011;6287;50.984;7.022;2022-08-01T03:45:30;2.55;;;1.95;;
12445;SDS011;6287;50.984;7.022;2022-08-01T03:47:59;2.10;;;1.90;;
12445;SDS011;6287;50.984;7.022;2022-08-01T03:50:29;2.25;;;2.05;;
12445;SDS011;6287;50.984;7.022;2022-08-01T03:53:00;2.10;;;1.90;;
12445;SDS011;6287;50.984;7.022;2022-08-01T03:55:27;1.92;;;1.73;;
12445;SDS011;6287;50.984;7.022;2022-08-01T03:57:54;2.53;;;2.20;;
12445;SDS011;6287;50.984;7.022;2022-08-01T04:00:21;2.17;;;1.63;;
12445;SDS011;6287;50.984;7.022;2022-08-01T04:02:50;2.55;;;1.75;;
12445;SDS011;6287;50.984;7.022;2022-08-01T04:05:18;2.08;;;1.88;;
12445;SDS011;6287;50.984;7.022;2022-08-01T04:07:47;2.70;;;2.05;;
12445;SDS011;6287;50.984;7.022;2022-08-01T04:10:24;3.33;;;2.30;;
12445;SDS011;6287;50.984;7.022;2022-08-01T04:12:53;2.10;;;1.90;;
12445;SDS011;6287;50.984;7.022;2022-08-01T04:15:21;4.22;;;2.30;;
12445;SDS011;6287;50.984;7.022;2022-08-01T04:17:47;3.10;;;2.03;;
12445;SDS011;6287;50.984;7.022;2022-08-01T04:20:13;2.63;;;2.40;;
12445;SDS011;6287;50.984;7.022;2022-08-01T04:22:41;2.45;;;2.17;;
12445;SDS011;6287;50.984;7.022;2022-08-01T04:25:16;2.22;;;2.03;;
12445;SDS011;6287;50.984;7.022;2022-08-01T04:27:46;4.80;;;2.13;;
12445;SDS011;6287;50.984;7.022;2022-08-01T04:30:14;2.15;;;1.98;;
12445;SDS011;6287;50.984;7.022;2022-08-01T04:32:44;2.83;;;2.60;;
12445;SDS011;6287;50.984;7.022;2022-08-01T04:35:12;4.32;;;2.75;;
12445;SDS011;6287;50.984;7.022;2022-08-01T04:37:44;2.92;;;2.28;;
12445;SDS011;6287;50.984;7.022;2022-08-01T04:40:16;3.13;;;2.17;;
12445;SDS011;6287;50.984;7.022;2022-08-01T04:42:44;2.80;;;2.38;;
12445;SDS011;6287;50.984;7.022;2022-08-01T04:45:14;2.35;;;2.03;;
12445;SDS011;6287;50.984;7.022;2022-08-01T04:47:40;2.47;;;2.28;;
12445;SDS011;6287;50.984;7.022;2022-08-01T04:50:07;3.50;;;2.75;;
12445;SDS011;6287;50.984;7.022;2022-08-01T04:52:34;4.43;;;2.72;;
12445;SDS011;6287;50.984;7.022;2022-08-01T04:55:02;4.88;;;3.05;;
12445;SDS011;6287;50.984;7.022;2022-08-01T04:57:28;4.18;;;3.50;;
12445;SDS011;6287;50.984;7.022;2022-08-01T04:59:54;7.15;;;3.55;;
12445;SDS011;6287;50.984;7.022;2022-08-01T05:02:22;4.05;;;3.50;;
12445;SDS011;6287;50.984;7.022;2022-08-01T05:04:48;3.65;;;2.90;;
12445;SDS011;6287;50.984;7.022;2022-08-01T05:07:14;7.45;;;4.43;;
12445;SDS011;6287;50.984;7.022;2022-08-01T05:09:41;3.67;;;3.35;;
12445;SDS011;6287;50.984;7.022;2022-08-01T05:12:08;5.18;;;3.50;;
12445;SDS011;6287;50.984;7.022;2022-08-01T05:14:35;4.43;;;3.60;;
12445;SDS011;6287;50.984;7.022;2022-08-01T05:17:02;4.18;;;3.40;;
12445;SDS011;6287;50.984;7.022;2022-08-01T05:19:30;4.43;;;3.47;;
12445;SDS011;6287;50.984;7.022;2022-08-01T05:21:59;5.22;;;3.47;;
12445;SDS011;6287;50.984;7.022;2022-08-01T05:24:29;4.53;;;3.65;;
12445;SDS011;6287;50.984;7.022;2022-08-01T05:27:00;6.43;;;3.58;;
12445;SDS011;6287;50.984;7.022;2022-08-01T05:29:28;5.40;;;3.50;;
12445;SDS011;6287;50.984;7.022;2022-08-01T05:31:55;5.70;;;3.92;;
12445;SDS011;6287;50.984;7.022;2022-08-01T05:34:24;4.18;;;3.63;;
12445;SDS011;6287;50.984;7.022;2022-08-01T05:36:52;6.57;;;4.40;;
12445;SDS011;6287;50.984;7.022;2022-08-01T05:39:20;5.93;;;4.00;;
12445;SDS011;6287;50.984;7.022;2022-08-01T05:41:46;8.40;;;4.70;;
12445;SDS011;6287;50.984;7.022;2022-08-01T05:44:14;6.95;;;4.45;;
12445;SDS011;6287;50.984;7.022;2022-08-01T05:46:42;5.78;;;4.20;;
12445;SDS011;6287;50.984;7.022;2022-08-01T05:49:10;6.88;;;4.72;;
12445;SDS011;6287;50.984;7.022;2022-08-01T05:51:38;7.53;;;4.85;;
12445;SDS011;6287;50.984;7.022;2022-08-01T05:54:03;7.50;;;5.15;;
12445;SDS011;6287;50.984;7.022;2022-08-01T05:56:29;7.68;;;4.97;;
12445;SDS011;6287;50.984;7.022;2022-08-01T05:58:55;10.15;;;5.95;;
12445;SDS011;6287;50.984;7.022;2022-08-01T06:01:21;8.63;;;5.45;;
12445;SDS011;6287;50.984;7.022;2022-08-01T06:03:49;6.53;;;5.30;;
12445;SDS011;6287;50.984;7.022;2022-08-01T06:06:17;7.88;;;5.50;;
12445;SDS011;6287;50.984;7.022;2022-08-01T06:08:42;8.00;;;5.13;;
12445;SDS011;6287;50.984;7.022;2022-08-01T06:11:08;8.80;;;5.63;;
12445;SDS011;6287;50.984;7.022;2022-08-01T06:13:36;7.68;;;5.28;;
12445;SDS011;6287;50.984;7.022;2022-08-01T06:16:06;9.50;;;5.93;;
12445;SDS011;6287;50.984;7.022;2022-08-01T06:18:34;9.40;;;5.70;;
12445;SDS011;6287;50.984;7.022;2022-08-01T06:21:02;8.73;;;5.30;;
12445;SDS011;6287;50.984;7.022;2022-08-01T06:23:27;8.02;;;5.68;;
12445;SDS011;6287;50.984;7.022;2022-08-01T06:25:55;11.20;;;5.90;;
12445;SDS011;6287;50.984;7.022;2022-08-01T06:28:22;10.45;;;6.13;;
12445;SDS011;6287;50.984;7.022;2022-08-01T06:30:52;8.38;;;5.45;;
12445;SDS011;6287;50.984;7.022;2022-08-01T06:33:21;8.27;;;5.22;;
12445;SDS011;6287;50.984;7.022;2022-08-01T06:35:46;8.48;;;5.22;;
12445;SDS011;6287;50.984;7.022;2022-08-01T06:38:14;6.22;;;4.88;;
12445;SDS011;6287;50.984;7.022;2022-08-01T06:40:40;6.75;;;5.25;;
12445;SDS011;6287;50.984;7.022;2022-08-01T06:43:05;7.90;;;5.20;;
12445;SDS011;6287;50.984;7.022;2022-08-01T06:45:31;6.90;;;4.95;;
12445;SDS011;6287;50.984;7.022;2022-08-01T06:47:59;7.43;;;5.20;;
12445;SDS011;6287;50.984;7.022;2022-08-01T06:50:25;7.13;;;4.60;;
12445;SDS011;6287;50.984;7.022;2022-08-01T06:52:52;7.57;;;5.53;;
12445;SDS011;6287;50.984;7.022;2022-08-01T06:55:18;6.22;;;4.78;;
12445;SDS011;6287;50.984;7.022;2022-08-01T06:57:51;7.85;;;4.97;;
12445;SDS011;6287;50.984;7.022;2022-08-01T07:00:20;7.85;;;5.20;;
12445;SDS011;6287;50.984;7.022;2022-08-01T07:02:48;5.20;;;4.30;;
12445;SDS011;6287;50.984;7.022;2022-08-01T07:05:22;5.95;;;4.45;;
12445;SDS011;6287;50.984;7.022;2022-08-01T07:07:48;4.63;;;4.22;;
12445;SDS011;6287;50.984;7.022;2022-08-01T07:10:14;5.25;;;4.55;;
12445;SDS011;6287;50.984;7.022;2022-08-01T07:12:40;5.22;;;4.07;;
12445;SDS011;6287;50.984;7.022;2022-08-01T07:15:08;5.32;;;4.28;;
12445;SDS011;6287;50.984;7.022;2022-08-01T07:17:36;4.85;;;4.03;;
12445;SDS011;6287;50.984;7.022;2022-08-01T07:20:09;5.05;;;4.30;;
12445;SDS011;6287;50.984;7.022;2022-08-01T07:22:37;5.53;;;4.25;;
12445;SDS011;6287;50.984;7.022;2022-08-01T07:25:06;6.50;;;3.92;;
12445;SDS011;6287;50.984;7.022;2022-08-01T07:27:37;7.15;;;4.00;;
12445;SDS011;6287;50.984;7.022;2022-08-01T07:30:03;6.68;;;4.40;;
12445;SDS011;6287;50.984;7.022;2022-08-01T07:32:31;4.43;;;3.97;;
12445;SDS011;6287;50.984;7.022;2022-08-01T07:34:56;4.10;;;3.65;;
12445;SDS011;6287;50.984;7.022;2022-08-01T07:37:22;5.13;;;3.50;;
12445;SDS011;6287;50.984;7.022;2022-08-01T07:39:51;4.18;;;3.78;;
12445;SDS011;6287;50.984;7.022;2022-08-01T07:42:23;5.20;;;3.92;;
12445;SDS011;6287;50.984;7.022;2022-08-01T07:44:49;5.15;;;4.03;;
12445;SDS011;6287;50.984;7.022;2022-08-01T07:47:22;4.97;;;4.32;;
12445;SDS011;6287;50.984;7.022;2022-08-01T07:49:51;5.65;;;4.05;;
12445;SDS011;6287;50.984;7.022;2022-08-01T07:52:17;4.93;;;3.78;;
12445;SDS011;6287;50.984;7.022;2022-08-01T07:54:45;5.72;;;4.22;;
12445;SDS011;6287;50.984;7.022;2022-08-01T07:57:11;5.55;;;3.88;;
12445;SDS011;6287;50.984;7.022;2022-08-01T07:59:36;5.50;;;4.15;;
12445;SDS011;6287;50.984;7.022;2022-08-01T08:02:02;4.10;;;3.65;;
12445;SDS011;6287;50.984;7.022;2022-08-01T08:04:28;4.03;;;3.63;;
12445;SDS011;6287;50.984;7.022;2022-08-01T08:06:54;3.72;;;3.33;;
12445;SDS011;6287;50.984;7.022;2022-08-01T08:09:22;5.32;;;3.88;;
12445;SDS011;6287;50.984;7.022;2022-08-01T08:11:48;5.22;;;3.38;;
12445;SDS011;6287;50.984;7.022;2022-08-01T08:14:17;4.65;;;3.88;;
12445;SDS011;6287;50.984;7.022;2022-08-01T08:16:42;4.57;;;4.00;;
12445;SDS011;6287;50.984;7.022;2022-08-01T08:19:08;3.88;;;3.58;;
12445;SDS011;6287;50.984;7.022;2022-08-01T08:21:34;3.47;;;3.13;;
12445;SDS011;6287;50.984;7.022;2022-08-01T08:24:05;4.50;;;3.63;;
12445;SDS011;6287;50.984;7.022;2022-08-01T08:26:44;5.03;;;3.22;;
12445;SDS011;6287;50.984;7.022;2022-08-01T08:29:10;3.70;;;3.35;;
12445;SDS011;6287;50.984;7.022;2022-08-01T08:31:38;3.75;;;3.35;;
12445;SDS011;6287;50.984;7.022;2022-08-01T08:34:07;3.47;;;3.00;;
12445;SDS011;6287;50.984;7.022;2022-08-01T08:36:35;2.95;;;2.75;;
12445;SDS011;6287;50.984;7.022;2022-08-01T08:39:00;2.38;;;2.17;;
12445;SDS011;6287;50.984;7.022;2022-08-01T08:41:34;2.17;;;2.08;;
12445;SDS011;6287;50.984;7.022;2022-08-01T08:44:06;2.05;;;1.90;;
12445;SDS011;6287;50.984;7.022;2022-08-01T08:46:32;2.63;;;2.42;;
12445;SDS011;6287;50.984;7.022;2022-08-01T08:48:59;2.30;;;2.10;;
12445;SDS011;6287;50.984;7.022;2022-08-01T08:51:27;2.30;;;2.10;;
12445;SDS011;6287;50.984;7.022;2022-08-01T08:53:55;2.38;;;2.17;;
12445;SDS011;6287;50.984;7.022;2022-08-01T08:56:21;2.50;;;2.30;;
12445;SDS011;6287;50.984;7.022;2022-08-01T08:58:49;2.47;;;2.10;;
12445;SDS011;6287;50.984;7.022;2022-08-01T09:01:16;2.70;;;2.20;;
12445;SDS011;6287;50.984;7.022;2022-08-01T09:03:42;2.53;;;2.10;;
12445;SDS011;6287;50.984;7.022;2022-08-01T09:06:09;2.70;;;2.20;;
12445;SDS011;6287;50.984;7.022;2022-08-01T09:08:39;2.20;;;1.75;;
12445;SDS011;6287;50.984;7.022;2022-08-01T09:11:06;2.78;;;2.35;;
12445;SDS011;6287;50.984;7.022;2022-08-01T09:13:34;2.38;;;2.17;;
12445;SDS011;6287;50.984;7.022;2022-08-01T09:16:02;2.15;;;1.95;;
12445;SDS011;6287;50.984;7.022;2022-08-01T09:23:35;2.50;;;2.30;;
12445;SDS011;6287;50.984;7.022;2022-08-01T09:26:06;2.88;;;2.10;;
12445;SDS011;6287;50.984;7.022;2022-08-01T09:28:33;2.55;;;2.28;;
12445;SDS011;6287;50.984;7.022;2022-08-01T09:30:59;2.13;;;1.80;;
12445;SDS011;6287;50.984;7.022;2022-08-01T09:36:23;2.22;;;1.85;;
12445;SDS011;6287;50.984;7.022;2022-08-01T09:38:53;1.90;;;1.80;;
12445;SDS011;6287;50.984;7.022;2022-08-01T09:41:29;2.38;;;1.98;;
12445;SDS011;6287;50.984;7.022;2022-08-01T09:43:56;2.03;;;1.92;;
12445;SDS011;6287;50.984;7.022;2022-08-01T09:46:24;2.75;;;2.15;;
12445;SDS011;6287;50.984;7.022;2022-08-01T09:49:01;2.75;;;1.85;;
12445;SDS011;6287;50.984;7.022;2022-08-01T09:51:32;2.28;;;2.08;;
12445;SDS011;6287;50.984;7.022;2022-08-01T09:54:02;2.00;;;1.83;;
12445;SDS011;6287;50.984;7.022;2022-08-01T09:56:37;2.13;;;1.90;;
12445;SDS011;6287;50.984;7.022;2022-08-01T09:59:04;3.30;;;2.05;;
12445;SDS011;6287;50.984;7.022;2022-08-01T10:01:43;1.85;;;1.75;;
12445;SDS011;6287;50.984;7.022;2022-08-01T10:06:45;2.40;;;2.20;;
12445;SDS011;6287;50.984;7.022;2022-08-01T10:09:14;1.85;;;1.75;;
12445;SDS011;6287;50.984;7.022;2022-08-01T10:11:50;2.03;;;1.83;;
12445;SDS011;6287;50.984;7.022;2022-08-01T10:14:19;1.80;;;1.70;;
12445;SDS011;6287;50.984;7.022;2022-08-01T10:16:48;1.63;;;1.38;;
12445;SDS011;6287;50.984;7.022;2022-08-01T10:19:18;1.98;;;1.85;;
12445;SDS011;6287;50.984;7.022;2022-08-01T10:21:49;2.15;;;2.05;;
12445;SDS011;6287;50.984;7.022;2022-08-01T10:24:23;2.55;;;1.50;;
12445;SDS011;6287;50.984;7.022;2022-08-01T10:27:11;1.70;;;1.60;;
12445;SDS011;6287;50.984;7.022;2022-08-01T10:29:45;1.88;;;1.73;;
12445;SDS011;6287;50.984;7.022;2022-08-01T10:32:34;1.70;;;1.60;;
12445;SDS011;6287;50.984;7.022;2022-08-01T10:35:01;2.60;;;2.20;;
12445;SDS011;6287;50.984;7.022;2022-08-01T10:37:31;1.65;;;1.55;;
12445;SDS011;6287;50.984;7.022;2022-08-01T10:39:59;1.70;;;1.60;;
12445;SDS011;6287;50.984;7.022;2022-08-01T10:42:32;1.85;;;1.50;;
12445;SDS011;6287;50.984;7.022;2022-08-01T10:45:01;1.98;;;1.83;;
12445;SDS011;6287;50.984;7.022;2022-08-01T10:47:38;1.60;;;1.50;;
12445;SDS011;6287;50.984;7.022;2022-08-01T10:53:26;1.80;;;1.70;;
12445;SDS011;6287;50.984;7.022;2022-08-01T10:58:25;1.45;;;1.35;;
12445;SDS011;6287;50.984;7.022;2022-08-01T11:12:11;1.17;;;1.17;;
12445;SDS011;6287;50.984;7.022;2022-08-01T11:17:29;1.45;;;1.38;;
12445;SDS011;6287;50.984;7.022;2022-08-01T11:22:32;2.05;;;1.27;;
12445;SDS011;6287;50.984;7.022;2022-08-01T11:25:17;1.38;;;1.27;;
12445;SDS011;6287;50.984;7.022;2022-08-01T11:27:45;1.40;;;1.30;;
12445;SDS011;6287;50.984;7.022;2022-08-01T11:35:21;1.27;;;1.27;;
12445;SDS011;6287;50.984;7.022;2022-08-01T11:37:49;2.55;;;2.35;;
12445;SDS011;6287;50.984;7.022;2022-08-01T11:42:50;2.45;;;2.20;;
12445;SDS011;6287;50.984;7.022;2022-08-01T11:45:53;1.30;;;1.20;;
12445;SDS011;6287;50.984;7.022;2022-08-01T11:48:29;1.20;;;1.20;;
12445;SDS011;6287;50.984;7.022;2022-08-01T11:50:57;1.10;;;1.10;;
12445;SDS011;6287;50.984;7.022;2022-08-01T11:53:24;1.33;;;1.08;;
12445;SDS011;6287;50.984;7.022;2022-08-01T11:55:53;1.67;;;1.40;;
12445;SDS011;6287;50.984;7.022;2022-08-01T11:58:23;1.85;;;1.40;;
12445;SDS011;6287;50.984;7.022;2022-08-01T12:00:53;1.55;;;1.40;;
12445;SDS011;6287;50.984;7.022;2022-08-01T12:03:23;1.38;;;1.27;;
12445;SDS011;6287;50.984;7.022;2022-08-01T12:05:54;1.50;;;1.45;;
12445;SDS011;6287;50.984;7.022;2022-08-01T12:08:27;1.55;;;1.20;;
12445;SDS011;6287;50.984;7.022;2022-08-01T12:11:00;1.17;;;1.13;;
12445;SDS011;6287;50.984;7.022;2022-08-01T12:13:39;1.40;;;1.30;;
12445;SDS011;6287;50.984;7.022;2022-08-01T12:16:09;2.05;;;1.38;;
12445;SDS011;6287;50.984;7.022;2022-08-01T12:18:41;2.50;;;1.27;;
12445;SDS011;6287;50.984;7.022;2022-08-01T12:21:10;1.17;;;1.17;;
12445;SDS011;6287;50.984;7.022;2022-08-01T12:23:36;1.40;;;1.08;;
12445;SDS011;6287;50.984;7.022;2022-08-01T12:26:01;1.10;;;1.10;;
12445;SDS011;6287;50.984;7.022;2022-08-01T12:28:28;1.10;;;1.10;;
12445;SDS011;6287;50.984;7.022;2022-08-01T12:30:54;1.00;;;1.00;;
12445;SDS011;6287;50.984;7.022;2022-08-01T12:33:23;1.35;;;1.25;;
12445;SDS011;6287;50.984;7.022;2022-08-01T12:35:50;1.23;;;1.23;;
12445;SDS011;6287;50.984;7.022;2022-08-01T12:38:22;1.00;;;1.00;;
12445;SDS011;6287;50.984;7.022;2022-08-01T12:40:52;1.20;;;1.20;;
12445;SDS011;6287;50.984;7.022;2022-08-01T12:43:18;1.00;;;1.00;;
12445;SDS011;6287;50.984;7.022;2022-08-01T12:45:47;0.80;;;0.80;;
12445;SDS011;6287;50.984;7.022;2022-08-01T12:48:15;0.82;;;0.82;;
12445;SDS011;6287;50.984;7.022;2022-08-01T12:50:44;0.80;;;0.80;;
12445;SDS011;6287;50.984;7.022;2022-08-01T12:53:13;0.68;;;0.68;;
12445;SDS011;6287;50.984;7.022;2022-08-01T12:55:43;0.88;;;0.80;;
12445;SDS011;6287;50.984;7.022;2022-08-01T12:58:11;1.05;;;0.80;;
12445;SDS011;6287;50.984;7.022;2022-08-01T13:00:38;0.70;;;0.70;;
12445;SDS011;6287;50.984;7.022;2022-08-01T13:03:08;0.82;;;0.82;;
12445;SDS011;6287;50.984;7.022;2022-08-01T13:08:14;0.60;;;0.60;;
12445;SDS011;6287;50.984;7.022;2022-08-01T13:10:43;0.73;;;0.65;;
12445;SDS011;6287;50.984;7.022;2022-08-01T13:13:09;0.70;;;0.70;;
12445;SDS011;6287;50.984;7.022;2022-08-01T13:15:39;0.68;;;0.68;;
12445;SDS011;6287;50.984;7.022;2022-08-01T13:21:07;0.70;;;0.70;;
12445;SDS011;6287;50.984;7.022;2022-08-01T13:23:34;0.50;;;0.50;;
12445;SDS011;6287;50.984;7.022;2022-08-01T13:26:02;0.65;;;0.65;;
12445;SDS011;6287;50.984;7.022;2022-08-01T13:28:30;1.08;;;0.57;;
12445;SDS011;6287;50.984;7.022;2022-08-01T13:31:07;0.30;;;0.30;;
12445;SDS011;6287;50.984;7.022;2022-08-01T13:33:45;0.45;;;0.45;;
12445;SDS011;6287;50.984;7.022;2022-08-01T13:36:14;0.40;;;0.40;;
12445;SDS011;6287;50.984;7.022;2022-08-01T13:38:40;0.40;;;0.40;;
12445;SDS011;6287;50.984;7.022;2022-08-01T13:41:25;0.43;;;0.43;;
12445;SDS011;6287;50.984;7.022;2022-08-01T13:43:53;0.55;;;0.55;;
12445;SDS011;6287;50.984;7.022;2022-08-01T13:46:21;0.55;;;0.55;;
12445;SDS011;6287;50.984;7.022;2022-08-01T13:48:47;0.40;;;0.40;;
12445;SDS011;6287;50.984;7.022;2022-08-01T13:51:14;0.50;;;0.50;;
12445;SDS011;6287;50.984;7.022;2022-08-01T13:53:43;0.50;;;0.50;;
12445;SDS011;6287;50.984;7.022;2022-08-01T13:56:10;0.50;;;0.50;;
12445;SDS011;6287;50.984;7.022;2022-08-01T13:58:36;0.40;;;0.40;;
12445;SDS011;6287;50.984;7.022;2022-08-01T14:01:04;0.60;;;0.60;;
12445;SDS011;6287;50.984;7.022;2022-08-01T14:03:32;0.50;;;0.50;;
12445;SDS011;6287;50.984;7.022;2022-08-01T14:06:02;0.55;;;0.55;;
12445;SDS011;6287;50.984;7.022;2022-08-01T14:08:33;0.40;;;0.40;;
12445;SDS011;6287;50.984;7.022;2022-08-01T14:10:59;0.55;;;0.55;;
12445;SDS011;6287;50.984;7.022;2022-08-01T14:13:28;0.38;;;0.38;;
12445;SDS011;6287;50.984;7.022;2022-08-01T14:15:53;0.43;;;0.43;;
12445;SDS011;6287;50.984;7.022;2022-08-01T14:18:24;0.52;;;0.52;;
12445;SDS011;6287;50.984;7.022;2022-08-01T14:20:52;0.40;;;0.40;;
12445;SDS011;6287;50.984;7.022;2022-08-01T14:23:18;0.40;;;0.40;;
12445;SDS011;6287;50.984;7.022;2022-08-01T14:25:48;0.30;;;0.30;;
12445;SDS011;6287;50.984;7.022;2022-08-01T14:28:14;1.38;;;0.70;;
12445;SDS011;6287;50.984;7.022;2022-08-01T14:30:42;0.63;;;0.63;;
12445;SDS011;6287;50.984;7.022;2022-08-01T14:33:11;0.50;;;0.50;;
12445;SDS011;6287;50.984;7.022;2022-08-01T14:35:40;0.50;;;0.50;;
12445;SDS011;6287;50.984;7.022;2022-08-01T14:38:06;0.35;;;0.35;;
12445;SDS011;6287;50.984;7.022;2022-08-01T14:40:32;0.50;;;0.50;;
12445;SDS011;6287;50.984;7.022;2022-08-01T14:43:04;0.55;;;0.55;;
12445;SDS011;6287;50.984;7.022;2022-08-01T14:45:32;0.40;;;0.40;;
12445;SDS011;6287;50.984;7.022;2022-08-01T14:47:58;0.40;;;0.40;;
12445;SDS011;6287;50.984;7.022;2022-08-01T14:50:26;0.60;;;0.60;;
12445;SDS011;6287;50.984;7.022;2022-08-01T14:52:53;0.45;;;0.45;;
12445;SDS011;6287;50.984;7.022;2022-08-01T14:55:24;0.43;;;0.43;;
12445;SDS011;6287;50.984;7.022;2022-08-01T14:57:55;0.60;;;0.60;;
12445;SDS011;6287;50.984;7.022;2022-08-01T15:00:23;0.50;;;0.50;;
12445;SDS011;6287;50.984;7.022;2022-08-01T15:02:51;0.60;;;0.60;;
12445;SDS011;6287;50.984;7.022;2022-08-01T15:05:22;0.52;;;0.52;;
12445;SDS011;6287;50.984;7.022;2022-08-01T15:07:47;0.60;;;0.60;;
12445;SDS011;6287;50.984;7.022;2022-08-01T15:10:15;0.65;;;0.65;;
12445;SDS011;6287;50.984;7.022;2022-08-01T15:12:43;0.77;;;0.50;;
12445;SDS011;6287;50.984;7.022;2022-08-01T15:15:09;0.70;;;0.70;;
12445;SDS011;6287;50.984;7.022;2022-08-01T15:17:35;0.60;;;0.60;;
12445;SDS011;6287;50.984;7.022;2022-08-01T15:20:06;0.60;;;0.60;;
12445;SDS011;6287;50.984;7.022;2022-08-01T15:22:34;0.50;;;0.50;;
12445;SDS011;6287;50.984;7.022;2022-08-01T15:25:02;1.60;;;0.80;;
12445;SDS011;6287;50.984;7.022;2022-08-01T15:27:29;0.60;;;0.60;;
12445;SDS011;6287;50.984;7.022;2022-08-01T15:29:57;0.60;;;0.60;;
12445;SDS011;6287;50.984;7.022;2022-08-01T15:32:25;0.68;;;0.68;;
12445;SDS011;6287;50.984;7.022;2022-08-01T15:34:50;2.70;;;0.73;;
12445;SDS011;6287;50.984;7.022;2022-08-01T15:37:24;1.33;;;0.88;;
12445;SDS011;6287;50.984;7.022;2022-08-01T15:39:52;0.65;;;0.65;;
12445;SDS011;6287;50.984;7.022;2022-08-01T15:42:22;0.63;;;0.60;;
12445;SDS011;6287;50.984;7.022;2022-08-01T15:44:50;0.70;;;0.68;;
12445;SDS011;6287;50.984;7.022;2022-08-01T15:47:16;0.70;;;0.70;;
12445;SDS011;6287;50.984;7.022;2022-08-01T15:49:44;0.80;;;0.80;;
12445;SDS011;6287;50.984;7.022;2022-08-01T15:52:14;0.70;;;0.70;;
12445;SDS011;6287;50.984;7.022;2022-08-01T15:54:40;0.80;;;0.80;;
12445;SDS011;6287;50.984;7.022;2022-08-01T15:57:06;0.82;;;0.82;;
12445;SDS011;6287;50.984;7.022;2022-08-01T15:59:36;0.95;;;0.95;;
12445;SDS011;6287;50.984;7.022;2022-08-01T16:02:04;0.77;;;0.77;;
12445;SDS011;6287;50.984;7.022;2022-08-01T16:04:34;0.60;;;0.60;;
12445;SDS011;6287;50.984;7.022;2022-08-01T16:07:00;0.80;;;0.80;;
12445;SDS011;6287;50.984;7.022;2022-08-01T16:09:25;0.95;;;0.93;;
12445;SDS011;6287;50.984;7.022;2022-08-01T16:11:54;0.80;;;0.80;;